• Join FlightAware (Why Join?)
  • Login
  • US Flag 
Rudolph Flight #1: Arrived! 
02:27AM EST


 

Airport Tracker/Info


-or-


 

Live Flight TrackerFlight Track Log ✈ N845AE ✈ 12-Apr-2013 ✈ CYOW - KORD

Flight Track Log - Related Links

Times and Time Zones

All times are in EDT time to prevent confusion due to time zone crossing. See the N845AE flight status page for this flight to view local times or setup timezone preferences in your user account.

Time Position Orientation Groundspeed Altitude Reporting Facility
EDT Latitude Longitude Course Direction KTS MPH feet Rate Location/Type
04:57PM 45.3167 -75.6000 259° West 50 58 800  Level Toronto Center
04:58PM 45.3333 -75.6167 325° Northwest 150 173 2,600 2,100 Climbing Montreal Center
04:59PM 45.3833 -75.5833 25° Northeast 240 276 4,500 2,340 Climbing Montreal Center
05:00PM 45.3667 -76.0327 270° West  Level FlightAware Approximate
05:00PM 45.3833 -75.6500 270° West 180 207 7,300  Level Montreal Center
05:01PM 45.3774 -76.1568 278° West  Level FlightAware Approximate
05:01PM 45.3667 -75.7500 257° West 220 253 8,500  Level Montreal Center
05:02PM 45.3893 -76.2656 245° Southwest  Level FlightAware Approximate
05:02PM 45.3667 -75.8500 270° West 250 288 10,400  Level Montreal Center
05:03PM 45.3596 -76.3825 259° West  Level FlightAware Approximate
05:03PM 45.3667 -75.9667 270° West 270 311 11,500  Level Montreal Center
05:04PM 45.3500 -76.0667 257° West 300 345 12,500 1,020 Climbing Montreal Center
05:05PM 45.3167 -76.2000 250° West 320 368 13,600 1,020 Climbing Montreal Center
05:06PM 45.3000 -76.3333 260° West 330 380 14,600 1,140 Climbing Montreal Center
05:07PM 45.2833 -76.4667 260° West 340 391 15,900 1,140 Climbing Montreal Center
05:08PM 45.2667 -76.5833 259° West 340 391 16,900 1,140 Climbing Montreal Center
05:09PM 45.2500 -76.7333 261° West 340 391 18,200 1,200 Climbing Montreal Center
05:10PM 45.2333 -76.8667 260° West 340 391 19,400 1,140 Climbing Montreal Center
05:11PM 45.2167 -76.9833 259° West 350 403 20,500 1,140 Climbing Montreal Center
05:12PM 45.1833 -77.1333 253° West 350 403 21,700 1,140 Climbing Montreal Center
05:13PM 45.1500 -77.2500 248° West 350 403 22,800 1,140 Climbing Montreal Center
05:14PM 45.1167 -77.4000 253° West 350 403 24,000 1,140 Climbing Montreal Center
05:15PM 45.1000 -77.5333 260° West 350 403 25,100 1,140 Climbing Montreal Center
05:16PM 45.0667 -77.6667 251° West 360 414 26,300 1,140 Climbing Montreal Center
05:16PM 45.0500 -77.6667 180° South 350 403 26,600 1,080 Climbing Toronto Center
05:17PM 45.0167 -77.8000 251° West 350 403 27,700 1,080 Climbing Toronto Center
05:18PM 44.9833 -77.9333 251° West 340 391 28,800 1,140 Climbing Toronto Center
05:19PM 44.9500 -78.0500 248° West 340 391 30,000 1,080 Climbing Toronto Center
05:20PM 44.9167 -78.1667 248° West 340 391 31,000 1,080 Climbing Toronto Center
05:21PM 44.8833 -78.3167 253° West 350 403 32,200 1,140 Climbing Toronto Center
05:22PM 44.8500 -78.4333 248° West 340 391 33,300 1,080 Climbing Toronto Center
05:23PM 44.8333 -78.5500 259° West 340 391 34,400 960 Climbing Toronto Center
05:24PM 44.8000 -78.6833 251° West 340 391 35,000 840 Climbing Montreal Center
05:25PM 44.7667 -78.8000 248° West 340 391 35,900 480 Climbing Montreal Center
05:26PM 44.7333 -78.9167 248° West 340 391 36,000 60 Climbing Montreal Center
05:26PM 44.7167 -78.9333 215° Southwest 350 403 36,000  Level Toronto Center
05:27PM 44.6667 -79.0667 242° Southwest 370 426 36,000  Level Toronto Center
05:28PM 44.6167 -79.1833 239° Southwest 380 437 36,000  Level Toronto Center
05:29PM 44.5667 -79.3333 245° Southwest 390 449 36,000  Level Toronto Center
05:30PM 44.5167 -79.4667 242° Southwest 390 449 36,000  Level Toronto Center
05:31PM 44.4667 -79.6167 245° Southwest 390 449 36,000  Level Toronto Center
05:32PM 44.4167 -79.7333 239° Southwest 390 449 36,000  Level Toronto Center
05:33PM 44.3667 -79.8667 242° Southwest 390 449 36,000  Level Toronto Center
05:34PM 44.3167 -80.0000 242° Southwest 390 449 36,000  Level Toronto Center
05:35PM 44.2667 -80.1500 245° Southwest 390 449 36,000  Level Toronto Center
05:36PM 44.2167 -80.2833 242° Southwest 390 449 36,000  Level Toronto Center
05:37PM 44.1667 -80.4000 239° Southwest 390 449 36,000  Level Toronto Center
05:38PM 44.1167 -80.5333 242° Southwest 390 449 36,000  Level Toronto Center
05:39PM 44.0667 -80.6833 245° Southwest 390 449 36,000  Level Toronto Center
05:40PM 44.0167 -80.8167 242° Southwest 390 449 36,000 -420 Level Toronto Center
05:41PM 43.9500 -80.9500 235° Southwest 400 460 35,200 -900 Descending Toronto Center
05:42PM 43.9000 -81.0833 243° Southwest 400 460 34,300 -600 Descending Toronto Center
05:43PM 43.8500 -81.2333 245° Southwest 380 437 34,000 -180 Descending Toronto Center
05:44PM 43.8000 -81.3500 239° Southwest 380 437 34,000  Level Toronto Center
05:45PM 43.7500 -81.4833 243° Southwest 380 437 34,000  Level Toronto Center
05:46PM 43.7000 -81.6000 239° Southwest 380 437 34,000  Level Toronto Center
05:47PM 43.6500 -81.7333 243° Southwest 390 449 34,000  Level Toronto Center
05:48PM 43.6000 -81.8667 243° Southwest 390 449 34,000  Level Toronto Center
05:49PM 43.5333 -81.9833 232° Southwest 390 449 34,000  Level Toronto Center
05:50PM 43.4833 -82.1167 243° Southwest 390 449 34,000  Level Toronto Center
05:51PM 43.4872 -82.1539 278° West 391 450 34,000  Level Cleveland Center
05:52PM 43.4542 -82.2933 252° West 386 444 34,000 -240 Level Cleveland Center
05:53PM 43.4247 -82.4383 254° West 391 450 33,600 -660 Descending Cleveland Center
05:54PM 43.3933 -82.5800 253° West 391 450 32,700 -960 Descending Cleveland Center
05:54PM 43.3500 -82.7000 244° Southwest 390 449 32,000 -720 Descending Toronto Center
05:55PM 43.3614 -82.7275 300° West 398 458 32,000  Level Cleveland Center
05:56PM 43.3294 -82.8692 253° West 393 452 32,000  Level Cleveland Center
05:57PM 43.2975 -83.0133 253° West 393 452 32,000  Level Cleveland Center
05:58PM 43.2631 -83.1547 252° West 393 452 32,000  Level Cleveland Center
05:59PM 43.2328 -83.2958 254° West 393 452 32,000  Level Cleveland Center
06:00PM 43.2003 -83.4311 252° West 393 452 32,000  Level Cleveland Center
06:01PM 43.1675 -83.5778 253° West 393 452 32,000  Level Cleveland Center
06:02PM 43.1367 -83.7158 253° West 393 452 32,000  Level Cleveland Center
06:03PM 43.1017 -83.8561 251° West 393 452 32,000  Level Cleveland Center
06:04PM 43.0706 -83.9939 253° West 393 452 32,000  Level Cleveland Center
06:05PM 43.0369 -84.1339 252° West 393 452 32,000  Level Cleveland Center
06:06PM 42.9844 -84.3597 252° West 389 448 32,000  Level Chicago Center
06:07PM 42.9508 -84.5000 252° West 389 448 32,000  Level Chicago Center
06:08PM 42.9103 -84.6675 252° West 388 447 32,000  Level Chicago Center
06:09PM 42.8767 -84.8081 252° West 390 449 32,000  Level Chicago Center
06:10PM 42.8442 -84.9492 253° West 391 450 32,000  Level Chicago Center
06:12PM 42.8297 -85.0981 263° West 394 453 32,000 -60 Level Chicago Center
06:13PM 42.8144 -85.2439 262° West 392 451 31,900 -1,020 Descending Chicago Center
06:14PM 42.7983 -85.3942 262° West 397 457 30,000 -2,040 Descending Chicago Center
06:15PM 42.7742 -85.5708 260° West 392 451 27,700 -2,160 Descending Chicago Center
06:16PM 42.7478 -85.7172 256° West 394 453 25,500 -1,860 Descending Chicago Center
06:17PM 42.7206 -85.8686 256° West 406 467 23,900 -1,680 Descending Chicago Center
06:18PM 42.6944 -86.0131 256° West 395 455 22,100 -1,620 Descending Chicago Center
06:19PM 42.6683 -86.1539 256° West 384 442 20,600 -1,020 Descending Chicago Center
06:20PM 42.6439 -86.2886 256° West 372 428 20,000 -1,020 Descending Chicago Center
06:21PM 42.6181 -86.4197 255° West 362 417 18,600 -1,860 Descending Chicago Center
06:22PM 42.5878 -86.5828 256° West 370 426 16,200 -2,100 Descending Chicago Center
06:23PM 42.5628 -86.7136 255° West 363 418 14,300 -1,800 Descending Chicago Center
06:24PM 42.5344 -86.8358 253° West 349 402 12,500 -1,800 Descending Chicago Center
06:25PM 42.4997 -86.9522 248° West 338 389 10,700 -1,260 Descending Chicago Center
06:26PM 42.4681 -87.0694 250° West 333 383 10,000 -360 Descending Chicago Center
06:27PM 42.4364 -87.1803 249° West 321 369 10,000 -420 Level Chicago Center
06:28PM 42.4075 -87.2853 250° West 253 291 9,200 -780 Descending Chicago Center
06:29PM 42.3725 -87.3589 237° Southwest 258 297 8,400 -900 Descending Chicago Center
06:30PM 42.2983 -87.3797 192° South 266 306 7,400 -1,020 Descending Chicago Center
06:31PM 42.2269 -87.3986 191° South 263 303 6,300 -900 Descending Chicago Center
06:32PM 42.1586 -87.4172 191° South 256 295 5,600 -900 Descending Chicago Center
06:33PM 42.1000 -87.4333 192° South 259 298 4,900 -1,020 Descending Chicago TRACON
06:34PM 42.0333 -87.4500 191° South 245 282 4,000 -480 Descending Chicago TRACON
06:35PM 42.0000 -87.5167 236° Southwest 229 264 4,000  Level Chicago TRACON
06:36PM 42.0000 -87.6000 270° West 229 264 4,000 -60 Level Chicago TRACON
06:37PM 42.0000 -87.6833 270° West 224 258 3,900 -660 Descending Chicago TRACON
06:38PM 42.0000 -87.7667 270° West 213 245 2,800 -1,140 Descending Chicago TRACON